Nearby METAR Reports

 

KCXP - Carson City, Nevada, USA
Distance from station: WSW 2mi, 3km
Updated: Fri, Aug-18-2017 2:35pm PDT
NOT Current
Haze, Clear
Haze, Clear
 Wind from SW
Wind: SW 6 mph , 9 km/h
Temperature: 93°F , 34°C
Dew Point: 32°F , 0°C
Humidity: 11%
Barometer: 30.13 inHg , 1020.3 hPa
Summary: Haze
Clouds: Clear
Visibility: 3 miles , 5 km
2017/08/18 21:35 KCXP 182135Z AUTO 23005KT 3SM HZ CLR 34/00 A3013 RMK AO2
KRNO - Reno, Nevada, USA
Distance from station: N 21mi, 34km
Updated: Sat, Aug-19-2017 3:55am PDT
Clear
Clear
 Wind from calm
Wind: Calm
Temperature: 70°F , 21°C
Dew Point: 46°F , 8°C
Humidity: 43%
Barometer: 30.10 inHg , 1019.3 hPa
Clouds: Clear
Visibility: 10 miles , 16 km
2017/08/19 10:55 KRNO 191055Z 00000KT 10SM CLR 21/08 A3010 RMK AO2 SLP128 T02060078 $
 
KTRK - Truckee Tahoe, California, USA
Distance from station: WNW 24mi, 38km
Updated: Sat, Aug-19-2017 3:55am PDT
Clear
Clear
 Wind from calm
Wind: Calm
Temperature: 45°F , 7°C
Dew Point: 45°F , 7°C
Humidity: 100%
Barometer: 30.23 inHg , 1023.7 hPa
Clouds: Clear
Visibility: 10 miles , 16 km
2017/08/19 10:55 KTRK 191055Z AUTO 00000KT 10SM CLR 07/07 A3023 RMK AO2
KTVL - South Lake Tahoe, California, USA
Distance from station: SW 26mi, 42km
Updated: Sat, Aug-19-2017 3:53am PDT
Clear
Clear
 Wind from calm
Wind: Calm
Temperature: 50°F , 10°C
Dew Point: 43°F , 6°C
Humidity: 76%
Barometer: 30.24 inHg , 1024 hPa
Clouds: Clear
Visibility: 10 miles , 16 km
2017/08/19 10:53 KTVL 191053Z AUTO 00000KT 10SM CLR 10/06 A3024 RMK AO2 SLP179 T01000056
 
KRTS - Reno/Stead, Nevada, USA
Distance from station: NNW 34mi, 54km
Updated: Sat, Aug-19-2017 3:55am PDT
Clear
Clear
 Wind from NW
Wind: NW 7 mph , 11 km/h
Temperature: 64°F , 18°C
Dew Point: 41°F , 5°C
Humidity: 43%
Barometer: 30.16 inHg , 1021.3 hPa
Clouds: Clear
Visibility: 10 miles , 16 km
2017/08/19 10:55 KRTS 191055Z AUTO 32006KT 10SM CLR 18/05 A3016 RMK AO2
KBLU - Emigrant Gap, California, USA
Distance from station: W 54mi, 87km
Updated: Sat, Aug-19-2017 3:52am PDT
Clear
Clear
 Wind from N
Wind: N 6 mph , 9 km/h
Temperature: 72°F , 22°C
Dew Point: 43°F , 6°C
Humidity: 36%
Barometer: 30.17 inHg , 1021.7 hPa
Clouds: Clear
Visibility: 10 miles , 16 km
2017/08/19 10:52 KBLU 191052Z AUTO 36005KT 10SM CLR 22/06 A3017 RMK AO2 SLP098 T02170056 TSNO
 
KNFL - Fallon Nas, Nevada, USA
Distance from station: ENE 56mi, 89km
Updated: Sat, Aug-19-2017 3:56am PDT
Clear
Clear
 Wind from S
Wind: S 8 mph , 13 km/h
Temperature: 64°F , 18°C
Dew Point: 32°F , 0°C
Humidity: 30%
Barometer: 30.03 inHg , 1016.9 hPa
Clouds: Clear
Visibility: 10 miles , 16 km
2017/08/19 10:56 KNFL 191056Z AUTO 17007KT 10SM CLR 18/00 A3003 RMK AO2 SLP138 T01830000
KBAN - Bridgeport(Mcmwt, California, USA
Distance from station: S 60mi, 96km
Updated: Sat, Aug-19-2017 3:52am PDT
Clear
Clear
 Wind from calm
Wind: Calm
Temperature: 52°F , 11°C
Dew Point: 39°F , 4°C
Humidity: 62%
Barometer: 30.27 inHg , 1025.1 hPa
Clouds: Clear
Visibility: 10 miles , 16 km
2017/08/19 10:52 KBAN 191052Z AUTO 00000KT 10SM CLR 11/04 A3027 RMK AO2 SLP147 T01110039
 
KPVF - Placerville, California, USA
Distance from station: WSW 66mi, 105km
Updated: Thu, Aug-03-2017 10:55am PDT
NOT Current
Clear
Clear
 Wind from SW
Wind: SW 6 mph , 9 km/h
Temperature: 90°F , 32°C
Dew Point: 48°F , 9°C
Humidity: 24%
Barometer: 30.08 inHg , 1018.6 hPa
Clouds: Clear
Visibility: 10 miles , 16 km
2017/08/03 17:55 KPVF 031755Z AUTO 23005KT 10SM CLR 32/09 A3008 RMK AO1
KGOO - Grass Valley, California, USA
Distance from station: W 70mi, 112km
Updated: Fri, May-05-2017 6:55am PDT
NOT Current
Clear
Clear
 Wind from SE
Wind: SE 3 mph , 6 km/h
Temperature: 59°F , 15°C
Dew Point: 46°F , 8°C
Humidity: 63%
Barometer: 29.93 inHg , 1013.5 hPa
Clouds: Clear
Visibility: 10 miles , 16 km
2017/05/05 13:55 KGOO 051355Z AUTO 14003KT 10SM CLR 15/08 A2993 RMK AO1
 
KAUN - Auburn Muni, California, USA
Distance from station: WSW 76mi, 123km
Updated: Sat, Aug-19-2017 3:55am PDT
Clear
Clear
 Wind from calm
Wind: Calm
Temperature: 73°F , 23°C
Dew Point: 70°F , 21°C
Humidity: 89%
Barometer: 29.91 inHg , 1012.9 hPa
Clouds: Clear
Visibility: 10 miles , 16 km
2017/08/19 10:55 KAUN 191055Z AUTO 00000KT 10SM CLR 23/21 A2991 RMK AO1
KLOL - Lovelock, Nevada, USA
Distance from station: NE 85mi, 137km
Updated: Sat, Aug-19-2017 3:53am PDT
Clear
Clear
 Wind from NE
Wind: NE 9 mph , 15 km/h
Temperature: 59°F , 15°C
Dew Point: 34°F , 1°C
Humidity: 39%
Barometer: 30.02 inHg , 1016.6 hPa
Clouds: Clear
Visibility: 10 miles , 16 km
2017/08/19 10:53 KLOL 191053Z AUTO 04008KT 10SM CLR 15/01 A3002 RMK AO2 SLP124 T01500011 TSNO
 
KLHM - Lincoln, California, USA
Distance from station: WSW 91mi, 146km
Updated: Sat, Aug-19-2017 3:55am PDT
Clear
Clear
 Wind from S
Wind: S 7 mph , 11 km/h
Temperature: 68°F , 20°C
Dew Point: 52°F , 11°C
Humidity: 56%
Barometer: 29.85 inHg , 1010.8 hPa
Clouds: Clear
Visibility: 10 miles , 16 km
2017/08/19 10:55 KLHM 191055Z AUTO 18006KT 10SM CLR 20/11 A2985 RMK AO1
KBAB - Beale Afb/Marysv, California, USA
Distance from station: W 92mi, 148km
Updated: Sat, Aug-19-2017 3:58am PDT
Clear
Clear
 Wind from calm
Wind: Calm
Temperature: 66°F , 19°C
Dew Point: 59°F , 15°C
Humidity: 78%
Barometer: 29.84 inHg , 1010.5 hPa
Clouds: Clear
Visibility: 10 miles , 16 km
2017/08/19 10:58 KBAB 191058Z AUTO 00000KT 10SM CLR 19/15 A2984 RMK AO2 SLP107 T01910146 $
 
KMHR - Mather Field, California, USA
Distance from station: WSW 97mi, 156km
Updated: Sat, Aug-19-2017 3:45am PDT
Clear
Clear
 Wind from S
Wind: S 7 mph , 11 km/h, Gust: 13 mph , 20 km/h
Temperature: 63°F , 17°C
Dew Point: 55°F , 13°C
Humidity: 77%
Barometer: 29.86 inHg , 1011.2 hPa
Clouds: Clear
Visibility: 10 miles , 16 km
2017/08/19 10:45 KMHR 191045Z 18006G11KT 10SM SKC 17/13 A2986
KMCC - Mcclellan Afb, California, USA
Distance from station: WSW 99mi, 159km
Updated: Sat, Aug-19-2017 3:55am PDT
Clear
Clear
 Wind from SSE
Wind: SSE 8 mph , 13 km/h
Temperature: 64°F , 18°C
Dew Point: 55°F , 13°C
Humidity: 73%
Barometer: 29.87 inHg , 1011.5 hPa
Clouds: Clear
Visibility: 10 miles , 16 km
2017/08/19 10:55 KMCC 191055Z AUTO 16007KT 10SM CLR 18/13 A2987 RMK AO2
 
KMYV - Marysville, California, USA
Distance from station: W 100mi, 161km
Updated: Sat, Aug-19-2017 3:53am PDT
Clear
Clear
 Wind from SW
Wind: SW 3 mph , 6 km/h
Temperature: 66°F , 19°C
Dew Point: 57°F , 14°C
Humidity: 73%
Barometer: 29.86 inHg , 1011.2 hPa
Clouds: Clear
Visibility: 10 miles , 16 km
2017/08/19 10:53 KMYV 191053Z AUTO 22003KT 10SM CLR 19/14 A2986 RMK AO2 SLP115 T01940139